Observation data for Morton on 07/15/2019      Previous  Date  Next       Current Mesonet Observations  Soil Data  Daily Summary Page  Observations in Plain Language
KMNS 150500Z 13002KT 22/11 A3011 RMK A01 T02220114  RH  052%=      5-min Rain = 0
KMNS 150505Z 13003KT 22/12 A3011 RMK A01 T02180115  RH  054%=      5-min Rain = 0
KMNS 150510Z 14003KT 22/11 A3011 RMK A01 T02160114  RH  054%=      5-min Rain = 0
KMNS 150515Z 14003KT 22/12 A3011 RMK A01 T02200115  RH  053%=      5-min Rain = 0
KMNS 150520Z 16003KT 22/12 A3011 RMK A01 T02200117  RH  054%=      5-min Rain = 0
KMNS 150525Z 16004KT 22/12 A3011 RMK A01 T02150118  RH  056%=      5-min Rain = 0
KMNS 150530Z 17003KT 22/12 A3011 RMK A01 T02160117  RH  055%=      5-min Rain = 0
KMNS 150535Z 17002KT 22/12 A3011 RMK A01 T02170116  RH  055%=      5-min Rain = 0
KMNS 150540Z 16003KT 21/12 A3011 RMK A01 T02140115  RH  055%=      5-min Rain = 0
KMNS 150545Z 17003KT 22/12 A3011 RMK A01 T02150116  RH  055%=      5-min Rain = 0
KMNS 150550Z 15003KT 22/11 A3011 RMK A01 T02170113  RH  053%=      5-min Rain = 0
KMNS 150555Z 14004KT 22/11 A3011 RMK A01 T02210111  RH  051%=      5-min Rain = 0
KMNS 150600Z 14003KT 22/11 A301 RMK A01 T02240110  RH  050%=      5-min Rain = 0
KMNS 150605Z 13003KT 23/11 A301 RMK A01 T02250112  RH  051%=      5-min Rain = 0
KMNS 150610Z 14003KT 22/11 A301 RMK A01 T02240111  RH  051%=      5-min Rain = 0
KMNS 150615Z 13003KT 23/11 A3011 RMK A01 T02250111  RH  050%=      5-min Rain = 0
KMNS 150620Z 11003KT 23/11 A3011 RMK A01 T02260112  RH  050%=      5-min Rain = 0
KMNS 150625Z 11002KT 22/12 A3011 RMK A01 T02190117  RH  054%=      5-min Rain = 0
KMNS 150630Z 11003KT 22/12 A3011 RMK A01 T02210115  RH  053%=      5-min Rain = 0
KMNS 150635Z 06005KT 22/12 A3011 RMK A01 T02160123  RH  058%=      5-min Rain = 0
KMNS 150640Z 09005KT 21/12 A3011 RMK A01 T02090122  RH  060%=      5-min Rain = 0
KMNS 150645Z 13005KT 21/12 A3011 RMK A01 T02130120  RH  058%=      5-min Rain = 0
KMNS 150650Z 14005KT 22/12 A301 RMK A01 T02180120  RH  056%=      5-min Rain = 0
KMNS 150655Z 13004KT 22/12 A3011 RMK A01 T02200120  RH  055%=      5-min Rain = 0
KMNS 150700Z 12004KT 22/12 A3011 RMK A01 T02200120  RH  055%=      5-min Rain = 0
KMNS 150705Z 09003KT 22/12 A3011 RMK A01 T02160123  RH  058%=      5-min Rain = 0
KMNS 150710Z 11004KT 21/13 A3011 RMK A01 T02080127  RH  062%=      5-min Rain = 0
KMNS 150715Z 12003KT 21/13 A3011 RMK A01 T02080126  RH  061%=      5-min Rain = 0
KMNS 150720Z 11002KT 21/13 A3011 RMK A01 T02090127  RH  062%=      5-min Rain = 0
KMNS 150725Z 12002KT 21/13 A3011 RMK A01 T02060127  RH  063%=      5-min Rain = 0
KMNS 150730Z 09005KT 21/13 A3011 RMK A01 T02060127  RH  063%=      5-min Rain = 0
KMNS 150735Z 10004KT 20/13 A3011 RMK A01 T02010127  RH  065%=      5-min Rain = 0
KMNS 150740Z 12003KT 20/13 A3011 RMK A01 T02020126  RH  064%=      5-min Rain = 0
KMNS 150745Z 13003KT 21/13 A3011 RMK A01 T02050126  RH  062%=      5-min Rain = 0
KMNS 150750Z 13003KT 21/13 A3011 RMK A01 T02080125  RH  061%=      5-min Rain = 0
KMNS 150755Z 14002KT 21/12 A3011 RMK A01 T02080124  RH  061%=      5-min Rain = 0
KMNS 150800Z 15002KT 21/12 A301 RMK A01 T02070124  RH  061%=      5-min Rain = 0
KMNS 150805Z 16003KT 21/13 A301 RMK A01 T02060125  RH  062%=      5-min Rain = 0
KMNS 150810Z 16003KT 20/13 A301 RMK A01 T02000128  RH  066%=      5-min Rain = 0
KMNS 150815Z 17003KT 20/13 A301 RMK A01 T01960128  RH  067%=      5-min Rain = 0
KMNS 150820Z 18002KT 20/13 A301 RMK A01 T01950128  RH  068%=      5-min Rain = 0
KMNS 150825Z 18002KT 19/13 A301 RMK A01 T01920127  RH  069%=      5-min Rain = 0
KMNS 150830Z 18002KT 19/13 A301 RMK A01 T01930127  RH  068%=      5-min Rain = 0
KMNS 150835Z 17002KT 20/13 A301 RMK A01 T01950126  RH  067%=      5-min Rain = 0
KMNS 150840Z 16003KT 20/13 A301 RMK A01 T01950125  RH  066%=      5-min Rain = 0
KMNS 150845Z 17003KT 20/13 A301 RMK A01 T01950126  RH  067%=      5-min Rain = 0
KMNS 150850Z 18003KT 20/13 A3009 RMK A01 T02010128  RH  065%=      5-min Rain = 0
KMNS 150855Z 18003KT 20/13 A3009 RMK A01 T02020128  RH  065%=      5-min Rain = 0
KMNS 150900Z 18003KT 20/13 A3009 RMK A01 T02010129  RH  066%=      5-min Rain = 0
KMNS 150905Z 19003KT 20/13 A3009 RMK A01 T02000129  RH  066%=      5-min Rain = 0
KMNS 150910Z 18003KT 20/13 A3009 RMK A01 T02000129  RH  066%=      5-min Rain = 0
KMNS 150915Z 17004KT 20/13 A3009 RMK A01 T01990130  RH  067%=      5-min Rain = 0
KMNS 150920Z 17004KT 20/13 A3009 RMK A01 T02000131  RH  067%=      5-min Rain = 0
KMNS 150925Z 18004KT 20/13 A3009 RMK A01 T02010131  RH  067%=      5-min Rain = 0
KMNS 150930Z 19003KT 20/13 A3009 RMK A01 T01990131  RH  067%=      5-min Rain = 0
KMNS 150935Z 20003KT 19/13 A3009 RMK A01 T01910128  RH  070%=      5-min Rain = 0
KMNS 150940Z 20003KT 19/13 A3009 RMK A01 T01910130  RH  071%=      5-min Rain = 0
KMNS 150945Z 19003KT 19/13 A3009 RMK A01 T01900131  RH  071%=      5-min Rain = 0
KMNS 150950Z 18003KT 19/13 A3009 RMK A01 T01910131  RH  071%=      5-min Rain = 0
KMNS 150955Z 19004KT 19/13 A3009 RMK A01 T01930132  RH  071%=      5-min Rain = 0
KMNS 151000Z 18004KT 20/13 A3009 RMK A01 T01970133  RH  069%=      5-min Rain = 0
KMNS 151005Z 18002KT 20/13 A3009 RMK A01 T01970131  RH  068%=      5-min Rain = 0
KMNS 151010Z 19002KT 19/13 A3009 RMK A01 T01920130  RH  070%=      5-min Rain = 0
KMNS 151015Z 19002KT 19/13 A3009 RMK A01 T01920131  RH  070%=      5-min Rain = 0
KMNS 151020Z 19000KT 19/13 A3009 RMK A01 T01920130  RH  070%=      5-min Rain = 0
KMNS 151025Z 30000KT 18/13 A301 RMK A01 T01830128  RH  073%=      5-min Rain = 0
KMNS 151030Z 32005KT 18/13 A301 RMK A01 T01770128  RH  076%=      5-min Rain = 0
KMNS 151035Z 33006KT 18/13 A3011 RMK A01 T01790130  RH  076%=      5-min Rain = 0
KMNS 151040Z 32005KT 18/13 A3011 RMK A01 T01790130  RH  076%=      5-min Rain = 0
KMNS 151045Z 33004KT 18/13 A3011 RMK A01 T01770131  RH  077%=      5-min Rain = 0
KMNS 151050Z 33003KT 18/13 A3011 RMK A01 T01780132  RH  078%=      5-min Rain = 0
KMNS 151055Z 34003KT 18/13 A3011 RMK A01 T01780133  RH  078%=      5-min Rain = 0
KMNS 151100Z 32007KT 18/13 A3011 RMK A01 T01760133  RH  079%=      5-min Rain = 0
KMNS 151105Z 32009KT 18/13 A3012 RMK A01 T01780134  RH  079%=      5-min Rain = 0
KMNS 151110Z 33005KT 18/13 A3012 RMK A01 T01820133  RH  076%=      5-min Rain = 0
KMNS 151115Z 32007KT 18/13 A3012 RMK A01 T01800131  RH  076%=      5-min Rain = 0
KMNS 151120Z 32007KT 18/13 A3012 RMK A01 T01790130  RH  076%=      5-min Rain = 0
KMNS 151125Z 31008KT 18/13 A3013 RMK A01 T01790129  RH  075%=      5-min Rain = 0
KMNS 151130Z 32007KT 18/13 A3013 RMK A01 T01800129  RH  075%=      5-min Rain = 0
KMNS 151135Z 32008KT 18/13 A3013 RMK A01 T01800128  RH  074%=      5-min Rain = 0
KMNS 151140Z 32006KT 18/13 A3012 RMK A01 T01810126  RH  073%=      5-min Rain = 0
KMNS 151145Z 32006KT 18/13 A3012 RMK A01 T01800125  RH  073%=      5-min Rain = 0
KMNS 151150Z 32007KT 18/12 A3012 RMK A01 T01810124  RH  072%=      5-min Rain = 0
KMNS 151155Z 31005KT 18/12 A3012 RMK A01 T01790123  RH  073%=      5-min Rain = 0
KMNS 151200Z 31003KT 18/12 A3012 RMK A01 T01760123  RH  074%=      5-min Rain = 0
KMNS 151205Z 32004KT 18/12 A3012 RMK A01 T01750123  RH  074%=      5-min Rain = 0
KMNS 151210Z 32003KT 17/12 A3012 RMK A01 T01740124  RH  076%=      5-min Rain = 0
KMNS 151215Z 30003KT 17/13 A3012 RMK A01 T01740128  RH  077%=      5-min Rain = 0
KMNS 151220Z 28002KT 18/13 A3012 RMK A01 T01760129  RH  077%=      5-min Rain = 0
KMNS 151225Z 28004KT 18/13 A3012 RMK A01 T01790130  RH  076%=      5-min Rain = 0
KMNS 151230Z 28003KT 18/13 A3012 RMK A01 T01820129  RH  074%=      5-min Rain = 0
KMNS 151235Z 27001KT 19/13 A3012 RMK A01 T01880131  RH  072%=      5-min Rain = 0
KMNS 151240Z 29001KT 19/13 A3012 RMK A01 T01920131  RH  070%=      5-min Rain = 0
KMNS 151245Z 29002KT 20/13 A3012 RMK A01 T01960131  RH  069%=      5-min Rain = 0
KMNS 151250Z 27001KT 20/13 A3012 RMK A01 T02000132  RH  067%=      5-min Rain = 0
KMNS 151255Z 27001KT 20/13 A3012 RMK A01 T02040130  RH  065%=      5-min Rain = 0
KMNS 151300Z 29003KT 21/13 A3012 RMK A01 T02080132  RH  064%=      5-min Rain = 0
KMNS 151305Z 30002KT 21/13 A3012 RMK A01 T02100131  RH  063%=      5-min Rain = 0
KMNS 151310Z 30001KT 21/13 A3012 RMK A01 T02130132  RH  062%=      5-min Rain = 0
KMNS 151315Z 31001KT 22/13 A3012 RMK A01 T02170133  RH  061%=      5-min Rain = 0
KMNS 151320Z 00000KT 22/13 A3012 RMK A01 T02230132  RH  059%=      5-min Rain = 0
KMNS 151325Z 08001KT 23/13 A3012 RMK A01 T02300132  RH  056%=      5-min Rain = 0
KMNS 151330Z 09001KT 23/13 A3012 RMK A01 T02320133  RH  056%=      5-min Rain = 0
KMNS 151335Z 09003KT 23/13 A3012 RMK A01 T02320134  RH  056%=      5-min Rain = 0
KMNS 151340Z 10003KT 23/13 A3011 RMK A01 T02330133  RH  056%=      5-min Rain = 0
KMNS 151345Z 12003KT 24/13 A3012 RMK A01 T02350134  RH  055%=      5-min Rain = 0
KMNS 151350Z 13003KT 24/13 A3012 RMK A01 T02370134  RH  055%=      5-min Rain = 0
KMNS 151355Z 13004KT 24/14 A3011 RMK A01 T02370135  RH  055%=      5-min Rain = 0
KMNS 151400Z 13005KT 24/14 A3011 RMK A01 T02380140  RH  057%=      5-min Rain = 0
KMNS 151405Z 13005KT 24/14 A3011 RMK A01 T02380139  RH  056%=      5-min Rain = 0
KMNS 151410Z 12004KT 24/14 A3012 RMK A01 T02380136  RH  055%=      5-min Rain = 0
KMNS 151415Z 13005KT 24/14 A3011 RMK A01 T02390137  RH  055%=      5-min Rain = 0
KMNS 151420Z 13006KT 24/14 A3011 RMK A01 T02400136  RH  054%=      5-min Rain = 0
KMNS 151425Z 14006KT 24/14 A3011 RMK A01 T02420135  RH  054%=      5-min Rain = 0
KMNS 151430Z 14007KT 25/13 A3011 RMK A01 T02490134  RH  051%=      5-min Rain = 0
KMNS 151435Z 14007KT 25/13 A3011 RMK A01 T02540134  RH  049%=      5-min Rain = 0
KMNS 151440Z 14007KT 26/14 A3011 RMK A01 T02590135  RH  048%=      5-min Rain = 0
KMNS 151445Z 14007KT 27/13 A301 RMK A01 T02660134  RH  046%=      5-min Rain = 0
KMNS 151450Z 14007KT 27/13 A301 RMK A01 T02700132  RH  044%=      5-min Rain = 0
KMNS 151455Z 15007KT 27/13 A301 RMK A01 T02720133  RH  044%=      5-min Rain = 0
KMNS 151500Z 16007KT 28/14 A3009 RMK A01 T02750135  RH  044%=      5-min Rain = 0
KMNS 151505Z 17006KT 28/14 A301 RMK A01 T02770136  RH  044%=      5-min Rain = 0
KMNS 151510Z 17007KT 28/14 A301 RMK A01 T02780135  RH  043%=      5-min Rain = 0
KMNS 151515Z 16007KT 28/14 A301 RMK A01 T02800135  RH  043%=      5-min Rain = 0
KMNS 151520Z 17006KT 28/14 A301 RMK A01 T02820136  RH  042%=      5-min Rain = 0
KMNS 151525Z 18007KT 29/14 A301 RMK A01 T02850137  RH  042%=      5-min Rain = 0
KMNS 151530Z 19006KT 29/14 A301 RMK A01 T02850138  RH  042%=      5-min Rain = 0
KMNS 151535Z 19007KT 29/14 A301 RMK A01 T02880136  RH  041%=      5-min Rain = 0
KMNS 151540Z 20007KT 29/14 A301 RMK A01 T02860135  RH  041%=      5-min Rain = 0
KMNS 151545Z 19007KT 29/14 A3011 RMK A01 T02880135  RH  041%=      5-min Rain = 0
KMNS 151550Z 19008KT 29/14 A3011 RMK A01 T02910136  RH  040%=      5-min Rain = 0
KMNS 151555Z 20006KT 29/13 A3011 RMK A01 T02900134  RH  040%=      5-min Rain = 0
KMNS 151600Z 20006KT 29/14 A3011 RMK A01 T02910135  RH  040%=      5-min Rain = 0
KMNS 151605Z 21007KT 29/14 A3011 RMK A01 T02940135  RH  039%=      5-min Rain = 0
KMNS 151610Z 21007KT 29/14 A3011 RMK A01 T02940135  RH  039%=      5-min Rain = 0
KMNS 151615Z 21009KT 30/13 A3011 RMK A01 T02960134  RH  039%=      5-min Rain = 0
KMNS 151620Z 22010KT 30/13 A3011 RMK A01 T02950132  RH  038%=      5-min Rain = 0
KMNS 151625Z 22010KT 30/14 A3011 RMK A01 T03000135  RH  038%=      5-min Rain = 0
KMNS 151630Z 21008G13KT 30/13 A3011 RMK A01 T02970133  RH  038%=      5-min Rain = 0
KMNS 151635Z 19009KT 30/13 A3011 RMK A01 T03030134  RH  037%=      5-min Rain = 0
KMNS 151640Z 20009KT 30/13 A3011 RMK A01 T03030133  RH  037%=      5-min Rain = 0
KMNS 151645Z 19008KT 30/13 A3011 RMK A01 T03010132  RH  037%=      5-min Rain = 0
KMNS 151650Z 21008KT 30/13 A3011 RMK A01 T03030134  RH  037%=      5-min Rain = 0
KMNS 151655Z 22008KT 30/13 A301 RMK A01 T03040127  RH  035%=      5-min Rain = 0
KMNS 151700Z 23007G12KT 30/13 A301 RMK A01 T03040128  RH  035%=      5-min Rain = 0
KMNS 151705Z 19006KT 31/13 A3011 RMK A01 T03070128  RH  035%=      5-min Rain = 0
KMNS 151710Z 20006KT 31/12 A3011 RMK A01 T03080119  RH  033%=      5-min Rain = 0
KMNS 151715Z 19006KT 31/13 A301 RMK A01 T03100125  RH  033%=      5-min Rain = 0
KMNS 151720Z 18007G12KT 31/12 A301 RMK A01 T03120122  RH  033%=      5-min Rain = 0
KMNS 151725Z 17005KT 31/12 A301 RMK A01 T03120121  RH  032%=      5-min Rain = 0
KMNS 151730Z 17006KT 32/12 A301 RMK A01 T03150124  RH  032%=      5-min Rain = 0
KMNS 151735Z 18007KT 32/12 A301 RMK A01 T03160124  RH  032%=      5-min Rain = 0
KMNS 151740Z 17006KT 32/12 A301 RMK A01 T03160118  RH  031%=      5-min Rain = 0
KMNS 151745Z 15005KT 32/11 A301 RMK A01 T03170114  RH  030%=      5-min Rain = 0
KMNS 151750Z 16004KT 32/12 A301 RMK A01 T03200115  RH  030%=      5-min Rain = 0
KMNS 151755Z 21009G14KT 32/12 A301 RMK A01 T03180119  RH  031%=      5-min Rain = 0
KMNS 151800Z 21007KT 32/12 A301 RMK A01 T03200119  RH  030%=      5-min Rain = 0
KMNS 151805Z 18002KT 32/12 A3009 RMK A01 T03200115  RH  030%=      5-min Rain = 0
KMNS 151810Z 22007KT 32/12 A3009 RMK A01 T03230118  RH  030%=      5-min Rain = 0
KMNS 151815Z 21004KT 32/11 A3009 RMK A01 T03210114  RH  029%=      5-min Rain = 0
KMNS 151820Z 14005KT 33/12 A3009 RMK A01 T03270116  RH  029%=      5-min Rain = 0
KMNS 151825Z 17007G12KT 33/12 A3009 RMK A01 T03280119  RH  029%=      5-min Rain = 0
KMNS 151830Z 17007KT 33/12 A3009 RMK A01 T03300118  RH  029%=      5-min Rain = 0
KMNS 151835Z 19004KT 33/11 A3009 RMK A01 T03300113  RH  028%=      5-min Rain = 0
KMNS 151840Z 20002KT 33/11 A3008 RMK A01 T03260109  RH  028%=      5-min Rain = 0
KMNS 151845Z 19006KT 33/11 A3008 RMK A01 T03310108  RH  027%=      5-min Rain = 0
KMNS 151850Z 24006KT 33/11 A3008 RMK A01 T03310111  RH  027%=      5-min Rain = 0
KMNS 151855Z 21006KT 33/11 A3008 RMK A01 T03300110  RH  027%=      5-min Rain = 0
KMNS 151900Z 18006KT 33/11 A3008 RMK A01 T03330109  RH  026%=      5-min Rain = 0
KMNS 151905Z 15008KT 34/11 A3007 RMK A01 T03380105  RH  025%=      5-min Rain = 0
KMNS 151910Z 18008KT 33/10 A3007 RMK A01 T03340102  RH  025%=      5-min Rain = 0
KMNS 151915Z 16007KT 33/10 A3007 RMK A01 T03340102  RH  025%=      5-min Rain = 0
KMNS 151920Z 17003KT 34/10 A3007 RMK A01 T03380101  RH  024%=      5-min Rain = 0
KMNS 151925Z 18008KT 34/11 A3007 RMK A01 T03400106  RH  025%=      5-min Rain = 0
KMNS 151930Z 16008KT 34/10 A3006 RMK A01 T03390102  RH  024%=      5-min Rain = 0
KMNS 151935Z 15006G12KT 34/10 A3006 RMK A01 T03400098  RH  024%=      5-min Rain = 0
KMNS 151940Z 16008KT 35/10 A3006 RMK A01 T03450097  RH  023%=      5-min Rain = 0
KMNS 151945Z 16008G14KT 34/10 A3006 RMK A01 T03400099  RH  024%=      5-min Rain = 0
KMNS 151950Z 18006G11KT 34/10 A3006 RMK A01 T03370097  RH  024%=      5-min Rain = 0
KMNS 151955Z 13008G15KT 34/10 A3006 RMK A01 T03400101  RH  024%=      5-min Rain = 0
KMNS 152000Z 18011KT 34/10 A3006 RMK A01 T03440102  RH  024%=      5-min Rain = 0
KMNS 152005Z 20009G15KT 34/10 A3005 RMK A01 T03420100  RH  024%=      5-min Rain = 0
KMNS 152010Z 25005G10KT 34/10 A3005 RMK A01 T03430100  RH  023%=      5-min Rain = 0
KMNS 152015Z 20005G10KT 35/09 A3005 RMK A01 T03460093  RH  022%=      5-min Rain = 0
KMNS 152020Z 18005KT 35/10 A3005 RMK A01 T03460097  RH  023%=      5-min Rain = 0
KMNS 152025Z 19007G12KT 35/10 A3005 RMK A01 T03530100  RH  022%=      5-min Rain = 0
KMNS 152030Z 22007KT 35/10 A3004 RMK A01 T03490098  RH  022%=      5-min Rain = 0
KMNS 152035Z 22006KT 35/09 A3004 RMK A01 T03500093  RH  022%=      5-min Rain = 0
KMNS 152040Z 19004KT 35/09 A3004 RMK A01 T03490094  RH  022%=      5-min Rain = 0
KMNS 152045Z 15006KT 35/10 A3003 RMK A01 T03490098  RH  022%=      5-min Rain = 0
KMNS 152050Z 18004G12KT 35/09 A3003 RMK A01 T03480094  RH  022%=      5-min Rain = 0
KMNS 152055Z 20009G15KT 35/10 A3003 RMK A01 T03520099  RH  022%=      5-min Rain = 0
KMNS 152100Z 21007G13KT 35/09 A3003 RMK A01 T03490094  RH  022%=      5-min Rain = 0
KMNS 152105Z 17003G10KT 35/09 A3003 RMK A01 T03500091  RH  021%=      5-min Rain = 0
KMNS 152110Z 16007G13KT 35/10 A3002 RMK A01 T03540096  RH  021%=      5-min Rain = 0
KMNS 152115Z 16008KT 35/10 A3002 RMK A01 T03510096  RH  022%=      5-min Rain = 0
KMNS 152120Z 16007KT 35/10 A3002 RMK A01 T03500095  RH  022%=      5-min Rain = 0
KMNS 152125Z 14005G10KT 35/09 A3002 RMK A01 T03500093  RH  021%=      5-min Rain = 0
KMNS 152130Z 18009G14KT 35/09 A3001 RMK A01 T03540094  RH  021%=      5-min Rain = 0
KMNS 152135Z 18008G13KT 36/09 A3001 RMK A01 T03560094  RH  021%=      5-min Rain = 0
KMNS 152140Z 18007KT 36/10 A3001 RMK A01 T03580095  RH  021%=      5-min Rain = 0
KMNS 152145Z 15006KT 36/09 A3001 RMK A01 T03600094  RH  020%=      5-min Rain = 0
KMNS 152150Z 15006G11KT 36/09 A3001 RMK A01 T03590090  RH  020%=      5-min Rain = 0
KMNS 152155Z 18006KT 36/09 A3001 RMK A01 T03580090  RH  020%=      5-min Rain = 0
KMNS 152200Z 17007G13KT 36/09 A30 RMK A01 T03580092  RH  020%=      5-min Rain = 0
KMNS 152205Z 18009KT 36/09 A30 RMK A01 T03600091  RH  020%=      5-min Rain = 0
KMNS 152210Z 18009KT 36/09 A30 RMK A01 T03550089  RH  020%=      5-min Rain = 0
KMNS 152215Z 17008G13KT 36/09 A30 RMK A01 T03570087  RH  020%=      5-min Rain = 0
KMNS 152220Z 17007KT 36/09 A30 RMK A01 T03550086  RH  020%=      5-min Rain = 0
KMNS 152225Z 18006G14KT 36/09 A30 RMK A01 T03550085  RH  020%=      5-min Rain = 0
KMNS 152230Z 16008G13KT 36/09 A30 RMK A01 T03580086  RH  020%=      5-min Rain = 0
KMNS 152235Z 15007KT 36/09 A30 RMK A01 T03570085  RH  020%=      5-min Rain = 0
KMNS 152240Z 16007KT 36/08 A30 RMK A01 T03560084  RH  020%=      5-min Rain = 0
KMNS 152245Z 15009KT 36/09 A2999 RMK A01 T03580085  RH  019%=      5-min Rain = 0
KMNS 152250Z 14007G13KT 35/08 A2999 RMK A01 T03540082  RH  019%=      5-min Rain = 0
KMNS 152255Z 14006KT 36/08 A2999 RMK A01 T03560081  RH  019%=      5-min Rain = 0
KMNS 152300Z 13007KT 36/08 A2999 RMK A01 T03550081  RH  019%=      5-min Rain = 0
KMNS 152305Z 11008KT 36/08 A2999 RMK A01 T03560083  RH  019%=      5-min Rain = 0
KMNS 152310Z 15010KT 36/08 A2999 RMK A01 T03570084  RH  019%=      5-min Rain = 0
KMNS 152315Z 17006KT 36/09 A2999 RMK A01 T03570085  RH  020%=      5-min Rain = 0
KMNS 152320Z 14007KT 36/09 A2999 RMK A01 T03580087  RH  020%=      5-min Rain = 0
KMNS 152325Z 14009G14KT 36/09 A2998 RMK A01 T03550088  RH  020%=      5-min Rain = 0
KMNS 152330Z 16006KT 35/09 A2998 RMK A01 T03530087  RH  020%=      5-min Rain = 0
KMNS 152335Z 15009KT 36/09 A2998 RMK A01 T03550087  RH  020%=      5-min Rain = 0
KMNS 152340Z 16009KT 35/09 A2998 RMK A01 T03540088  RH  020%=      5-min Rain = 0
KMNS 152345Z 16007G13KT 35/09 A2998 RMK A01 T03530087  RH  020%=      5-min Rain = 0
KMNS 152350Z 16009KT 35/09 A2998 RMK A01 T03520087  RH  020%=      5-min Rain = 0
KMNS 152355Z 16009KT 35/09 A2998 RMK A01 T03510088  RH  021%=      5-min Rain = 0
KMNS 160000Z 17009KT 35/09 A2998 RMK A01 T03500088  RH  021%=      5-min Rain = 0
KMNS 160005Z 16009KT 35/09 A2998 RMK A01 T03500089  RH  021%=      5-min Rain = 0
KMNS 160010Z 14008KT 35/09 A2998 RMK A01 T03470088  RH  021%=      5-min Rain = 0
KMNS 160015Z 14010KT 34/09 A2998 RMK A01 T03430087  RH  021%=      5-min Rain = 0
KMNS 160020Z 16009KT 34/09 A2998 RMK A01 T03400088  RH  022%=      5-min Rain = 0
KMNS 160025Z 15011KT 34/09 A2998 RMK A01 T03390086  RH  022%=      5-min Rain = 0
KMNS 160030Z 14010KT 34/09 A2998 RMK A01 T03390085  RH  022%=      5-min Rain = 0
KMNS 160035Z 14009KT 34/09 A2998 RMK A01 T03410086  RH  022%=      5-min Rain = 0
KMNS 160040Z 15008KT 34/09 A2998 RMK A01 T03420088  RH  022%=      5-min Rain = 0
KMNS 160045Z 14009KT 34/08 A2998 RMK A01 T03410083  RH  021%=      5-min Rain = 0
KMNS 160050Z 13010KT 34/08 A2998 RMK A01 T03400079  RH  021%=      5-min Rain = 0
KMNS 160055Z 14010G15KT 34/08 A2998 RMK A01 T03390079  RH  021%=      5-min Rain = 0
KMNS 160100Z 14010KT 34/08 A2998 RMK A01 T03380077  RH  021%=      5-min Rain = 0
KMNS 160105Z 13008KT 34/08 A2998 RMK A01 T03370079  RH  021%=      5-min Rain = 0
KMNS 160110Z 14009KT 34/08 A2998 RMK A01 T03350078  RH  021%=      5-min Rain = 0
KMNS 160115Z 14008KT 33/08 A2999 RMK A01 T03340082  RH  022%=      5-min Rain = 0
KMNS 160120Z 14008KT 33/08 A2998 RMK A01 T03320081  RH  022%=      5-min Rain = 0
KMNS 160125Z 14008KT 33/08 A2998 RMK A01 T03300083  RH  022%=      5-min Rain = 0
KMNS 160130Z 14009KT 33/08 A2998 RMK A01 T03270082  RH  023%=      5-min Rain = 0
KMNS 160135Z 15009KT 33/08 A2999 RMK A01 T03260082  RH  023%=      5-min Rain = 0
KMNS 160140Z 15008KT 32/08 A2999 RMK A01 T03230081  RH  023%=      5-min Rain = 0
KMNS 160145Z 14008KT 32/08 A2999 RMK A01 T03200083  RH  024%=      5-min Rain = 0
KMNS 160150Z 14007KT 32/09 A2999 RMK A01 T03170085  RH  025%=      5-min Rain = 0
KMNS 160155Z 15007KT 31/09 A2999 RMK A01 T03140088  RH  025%=      5-min Rain = 0
KMNS 160200Z 15007KT 31/09 A2999 RMK A01 T03110091  RH  026%=      5-min Rain = 0
KMNS 160205Z 14007KT 31/09 A2999 RMK A01 T03080093  RH  027%=      5-min Rain = 0
KMNS 160210Z 15007KT 31/09 A2999 RMK A01 T03060094  RH  028%=      5-min Rain = 0
KMNS 160215Z 15008KT 31/10 A2999 RMK A01 T03050096  RH  028%=      5-min Rain = 0
KMNS 160220Z 15008KT 31/10 A2999 RMK A01 T03050098  RH  029%=      5-min Rain = 0
KMNS 160225Z 15008KT 30/10 A2999 RMK A01 T03040100  RH  029%=      5-min Rain = 0
KMNS 160230Z 15008KT 30/10 A30 RMK A01 T03020101  RH  030%=      5-min Rain = 0
KMNS 160235Z 15009KT 30/10 A30 RMK A01 T03020103  RH  030%=      5-min Rain = 0
KMNS 160240Z 15009KT 30/10 A30 RMK A01 T03010103  RH  030%=      5-min Rain = 0
KMNS 160245Z 15009KT 30/10 A30 RMK A01 T03000103  RH  031%=      5-min Rain = 0
KMNS 160250Z 15009KT 30/10 A30 RMK A01 T02980103  RH  031%=      5-min Rain = 0
KMNS 160255Z 15009KT 30/10 A30 RMK A01 T02970103  RH  031%=      5-min Rain = 0
KMNS 160300Z 15009KT 30/10 A30 RMK A01 T02950103  RH  031%=      5-min Rain = 0
KMNS 160305Z 15008KT 29/10 A3001 RMK A01 T02940103  RH  032%=      5-min Rain = 0
KMNS 160310Z 15008KT 29/10 A3001 RMK A01 T02930102  RH  032%=      5-min Rain = 0
KMNS 160315Z 15008KT 29/10 A3001 RMK A01 T02910102  RH  032%=      5-min Rain = 0
KMNS 160320Z 15009KT 29/10 A3001 RMK A01 T02900101  RH  032%=      5-min Rain = 0
KMNS 160325Z 15008KT 29/10 A3002 RMK A01 T02890101  RH  032%=      5-min Rain = 0
KMNS 160330Z 15008KT 29/10 A3002 RMK A01 T02880100  RH  032%=      5-min Rain = 0
KMNS 160335Z 15008KT 29/10 A3002 RMK A01 T02870099  RH  032%=      5-min Rain = 0
KMNS 160340Z 15007KT 29/10 A3003 RMK A01 T02850099  RH  032%=      5-min Rain = 0
KMNS 160345Z 15008KT 28/10 A3003 RMK A01 T02830099  RH  033%=      5-min Rain = 0
KMNS 160350Z 15009KT 28/10 A3003 RMK A01 T02830099  RH  033%=      5-min Rain = 0
KMNS 160355Z 15008KT 28/10 A3003 RMK A01 T02820099  RH  033%=      5-min Rain = 0
KMNS 160400Z 15008KT 28/10 A3003 RMK A01 T02810099  RH  033%=      5-min Rain = 0
KMNS 160405Z 15007KT 28/10 A3003 RMK A01 T02790100  RH  034%=      5-min Rain = 0
KMNS 160410Z 15008KT 28/10 A3003 RMK A01 T02780100  RH  034%=      5-min Rain = 0
KMNS 160415Z 16007KT 28/10 A3004 RMK A01 T02770099  RH  034%=      5-min Rain = 0
KMNS 160420Z 16008KT 28/10 A3004 RMK A01 T02760099  RH  034%=      5-min Rain = 0
KMNS 160425Z 16007KT 27/10 A3004 RMK A01 T02740099  RH  034%=      5-min Rain = 0
KMNS 160430Z 16007KT 27/10 A3004 RMK A01 T02730099  RH  035%=      5-min Rain = 0
KMNS 160435Z 16007G12KT 27/10 A3004 RMK A01 T02730099  RH  035%=      5-min Rain = 0
KMNS 160440Z 16006KT 27/10 A3004 RMK A01 T02700099  RH  035%=      5-min Rain = 0
KMNS 160445Z 16007KT 27/10 A3004 RMK A01 T02680099  RH  036%=      5-min Rain = 0
KMNS 160450Z 16007KT 27/10 A3004 RMK A01 T02680099  RH  036%=      5-min Rain = 0
KMNS 160455Z 16006KT 27/10 A3004 RMK A01 T02670099  RH  036%=      5-min Rain = 0

Page generated in 0.0094 seconds.